Time;durP1;ratioP1;P1;durP2;ratioP2;P2;SDS_P1;SDS_P2;PMS_P1;PMS_P2;Temp;Humidity;BMP_temperature;BMP_pressure;BME280_temperature;BME280_humidity;BME280_pressure;Samples;Min_cycle;Max_cycle;Signal;HPM_P1;HPM_P2
2023/12/20 00:00:44;;;;;;;;;;;6.70;99.90;;;;;;8421188;28;19925;-72
2023/12/20 00:04:46;;;;;;;;;;;6.70;99.90;;;;;;8432228;28;19924;-72
2023/12/20 00:08:48;;;;;;;;;;;6.70;99.90;;;;;;8432638;28;19947;-72
2023/12/20 00:12:50;;;;;;;;;;;6.60;99.90;;;;;;8431590;28;19935;-71
2023/12/20 00:16:51;;;;;;;;;;;6.60;99.90;;;;;;8439356;28;19976;-71
2023/12/20 00:20:53;;;;;;;;;;;6.60;99.90;;;;;;8441387;28;19932;-71
2023/12/20 00:24:55;;;;;;;;;;;6.50;99.90;;;;;;8429710;28;19928;-72
2023/12/20 00:28:56;;;;;;;;;;;6.50;99.90;;;;;;8442773;28;19936;-71
2023/12/20 00:32:58;;;;;;;;;;;6.40;99.90;;;;;;8369859;28;1777378;-71
2023/12/20 01:12:23;;;;;;;;;;;6.10;99.90;;;;;;8430225;28;20043;-71
2023/12/20 01:16:25;;;;;;;;;;;6.10;99.90;;;;;;8433560;28;19931;-71
2023/12/20 01:20:27;;;;;;;;;;;6.00;99.90;;;;;;8434192;28;19935;-71
2023/12/20 01:24:28;;;;;;;;;;;6.00;99.90;;;;;;8423270;28;19928;-71
2023/12/20 01:28:30;;;;;;;;;;;6.00;99.90;;;;;;8430979;28;19967;-71
2023/12/20 01:32:32;;;;;;;;;;;6.00;99.90;;;;;;8440945;28;19931;-71
2023/12/20 01:36:33;;;;;;;;;;;6.10;99.90;;;;;;8438749;28;19924;-71
2023/12/20 01:40:35;;;;;;;;;;;6.10;99.90;;;;;;8436912;28;19924;-71
2023/12/20 01:44:37;;;;;;;;;;;6.20;99.90;;;;;;8443457;28;19924;-71
2023/12/20 01:48:38;;;;;;;;;;;6.20;99.90;;;;;;8419268;28;19978;-71
2023/12/20 01:52:42;;;;;;;;;;;6.20;99.90;;;;;;8451769;27;19924;-71
2023/12/20 01:56:43;;;;;;;;;;;6.20;99.90;;;;;;8414574;28;19924;-71
2023/12/20 02:00:45;;;;;;;;;;;6.20;99.90;;;;;;8433736;28;19969;-71
2023/12/20 02:04:47;;;;;;;;;;;6.20;99.90;;;;;;8428133;28;19924;-71
2023/12/20 02:08:49;;;;;;;;;;;6.20;99.90;;;;;;8433085;28;20290;-71
2023/12/20 02:12:51;;;;;;;;;;;6.20;99.90;;;;;;8433856;28;19924;-71
2023/12/20 02:16:53;;;;;;;;;;;6.20;99.90;;;;;;8437614;28;19930;-71
2023/12/20 02:20:55;;;;;;;;;;;6.20;99.90;;;;;;8425329;28;19935;-71
2023/12/20 02:24:57;;;;;;;;;;;6.20;99.90;;;;;;8420052;28;19924;-71
2023/12/20 02:28:59;;;;;;;;;;;6.20;99.90;;;;;;8440119;28;19924;-71
2023/12/20 02:33:01;;;;;;;;;;;6.20;99.90;;;;;;8425632;28;20294;-71
2023/12/20 02:37:03;;;;;;;;;;;6.30;99.90;;;;;;8432890;28;19930;-71
2023/12/20 02:41:04;;;;;;;;;;;6.30;99.90;;;;;;8429615;28;19928;-71
2023/12/20 02:45:06;;;;;;;;;;;6.30;99.90;;;;;;8441628;28;19927;-71
2023/12/20 02:49:08;;;;;;;;;;;6.30;99.90;;;;;;8426169;28;19928;-71
2023/12/20 02:53:10;;;;;;;;;;;6.40;99.90;;;;;;8436030;28;19924;-71
2023/12/20 02:57:11;;;;;;;;;;;6.50;99.90;;;;;;8426271;28;19947;-71
2023/12/20 03:01:13;;;;;;;;;;;6.50;99.90;;;;;;8415476;28;19935;-71
2023/12/20 03:05:15;;;;;;;;;;;6.60;99.90;;;;;;8432158;28;19944;-71
2023/12/20 03:09:17;;;;;;;;;;;6.60;99.90;;;;;;8445627;28;19924;-71
2023/12/20 03:13:19;;;;;;;;;;;6.60;99.90;;;;;;8432780;28;19927;-71
2023/12/20 03:17:21;;;;;;;;;;;6.70;99.90;;;;;;8429876;28;20356;-71
2023/12/20 03:21:22;;;;;;;;;;;6.70;99.90;;;;;;8428906;28;19928;-71
2023/12/20 03:25:24;;;;;;;;;;;6.70;99.90;;;;;;8434495;28;19924;-71
2023/12/20 03:29:26;;;;;;;;;;;6.80;99.90;;;;;;8435849;28;20375;-71
2023/12/20 03:33:27;;;;;;;;;;;6.80;99.90;;;;;;8444069;28;19935;-71
2023/12/20 03:37:29;;;;;;;;;;;6.90;99.90;;;;;;8442407;28;19940;-71
2023/12/20 03:41:31;;;;;;;;;;;6.90;99.90;;;;;;8444459;28;19932;-71
2023/12/20 03:45:33;;;;;;;;;;;7.00;99.90;;;;;;8430724;28;19931;-71
2023/12/20 03:49:36;;;;;;;;;;;7.00;99.90;;;;;;8437358;28;20291;-71
2023/12/20 03:53:40;;;;;;;;;;;7.00;99.90;;;;;;8434428;28;19932;-71
2023/12/20 03:57:42;;;;;;;;;;;7.00;99.90;;;;;;8444918;28;19994;-70
2023/12/20 04:01:47;;;;;;;;;;;7.00;99.90;;;;;;8444639;28;19950;-70
2023/12/20 04:05:48;;;;;;;;;;;7.00;99.90;;;;;;8455055;28;19930;-71
2023/12/20 04:09:50;;;;;;;;;;;7.00;99.90;;;;;;8430462;28;20352;-71
2023/12/20 04:13:52;;;;;;;;;;;6.90;99.90;;;;;;8443016;28;20375;-71
2023/12/20 04:17:54;;;;;;;;;;;6.90;99.90;;;;;;8442945;28;20365;-71
2023/12/20 04:21:55;;;;;;;;;;;6.90;99.90;;;;;;8436756;28;19928;-71
2023/12/20 04:25:57;;;;;;;;;;;7.00;99.90;;;;;;8442991;28;19928;-70
2023/12/20 04:29:59;;;;;;;;;;;7.00;99.90;;;;;;8432490;28;19924;-70
2023/12/20 04:34:00;;;;;;;;;;;7.00;99.90;;;;;;8433673;28;19931;-71
2023/12/20 04:38:02;;;;;;;;;;;7.10;99.90;;;;;;8428087;28;20036;-70
2023/12/20 04:42:04;;;;;;;;;;;7.10;99.90;;;;;;8423977;28;19932;-71
2023/12/20 04:46:06;;;;;;;;;;;7.10;99.90;;;;;;8442367;28;19993;-71
2023/12/20 04:50:08;;;;;;;;;;;7.20;99.90;;;;;;8436416;28;19930;-71
2023/12/20 04:54:10;;;;;;;;;;;7.20;99.90;;;;;;8430318;28;20372;-71
2023/12/20 04:58:12;;;;;;;;;;;7.30;99.90;;;;;;8441762;28;19924;-71
2023/12/20 05:02:14;;;;;;;;;;;7.30;99.90;;;;;;8437874;28;19924;-71
2023/12/20 05:06:15;;;;;;;;;;;7.30;99.90;;;;;;8456504;27;19924;-70
2023/12/20 05:10:17;;;;;;;;;;;7.30;99.90;;;;;;8407619;28;19950;-71
2023/12/20 05:14:18;;;;;;;;;;;7.30;99.90;;;;;;8439530;28;19927;-71
2023/12/20 05:33:31;;;;;;;;;;;7.40;99.90;;;;;;8408208;28;19931;-70
2023/12/20 05:37:33;;;;;;;;;;;7.40;99.90;;;;;;8440045;28;19923;-70
2023/12/20 05:41:35;;;;;;;;;;;7.40;99.90;;;;;;8423265;28;20143;-70
2023/12/20 05:45:37;;;;;;;;;;;7.40;99.90;;;;;;8439120;28;20259;-71
2023/12/20 05:49:38;;;;;;;;;;;7.40;99.90;;;;;;8435692;28;19961;-71
2023/12/20 06:13:53;;;;;;;;;;;7.40;99.90;;;;;;8422807;28;19964;-70
2023/12/20 06:17:55;;;;;;;;;;;7.50;99.90;;;;;;8440949;28;19927;-70
2023/12/20 06:21:57;;;;;;;;;;;7.50;99.90;;;;;;8433840;28;19928;-70
2023/12/20 06:25:58;;;;;;;;;;;7.50;99.90;;;;;;8429795;28;19924;-70
2023/12/20 06:30:00;;;;;;;;;;;7.50;99.90;;;;;;8438307;28;19932;-70
2023/12/20 06:34:03;;;;;;;;;;;7.40;99.90;;;;;;8433911;28;19978;-70
2023/12/20 06:38:04;;;;;;;;;;;7.50;99.90;;;;;;8426929;28;19931;-70
2023/12/20 06:42:06;;;;;;;;;;;7.50;99.90;;;;;;8428382;28;19932;-70
2023/12/20 06:46:08;;;;;;;;;;;7.50;99.90;;;;;;8427230;28;20298;-70
2023/12/20 06:50:10;;;;;;;;;;;7.50;99.90;;;;;;8432823;28;19954;-70
2023/12/20 06:54:12;;;;;;;;;;;7.50;99.90;;;;;;8442876;28;19924;-70
2023/12/20 06:58:14;;;;;;;;;;;7.50;99.90;;;;;;8444002;28;19928;-70
2023/12/20 07:02:15;;;;;;;;;;;7.50;99.90;;;;;;8445487;28;19928;-70
2023/12/20 07:06:17;;;;;;;;;;;7.50;99.90;;;;;;8435383;28;20343;-70
2023/12/20 07:10:19;;;;;;;;;;;7.50;99.90;;;;;;8434483;28;19924;-70
2023/12/20 07:14:21;;;;;;;;;;;7.60;99.90;;;;;;8432768;28;19924;-70
2023/12/20 07:18:23;;;;;;;;;;;7.60;99.90;;;;;;8444414;28;20300;-70
2023/12/20 07:22:24;;;;;;;;;;;7.60;99.90;;;;;;8441651;28;19975;-70
2023/12/20 07:26:26;;;;;;;;;;;7.60;99.90;;;;;;8432403;28;19928;-70
2023/12/20 07:30:28;;;;;;;;;;;7.70;99.90;;;;;;8432591;28;20280;-70
2023/12/20 07:34:30;;;;;;;;;;;7.70;99.90;;;;;;8440600;28;20235;-70
2023/12/20 07:38:32;;;;;;;;;;;7.70;99.90;;;;;;8425175;28;19934;-70
2023/12/20 07:42:33;;;;;;;;;;;7.70;99.90;;;;;;8445209;28;19931;-70
2023/12/20 07:46:35;;;;;;;;;;;7.70;99.90;;;;;;8443156;28;19973;-71
2023/12/20 07:50:37;;;;;;;;;;;7.80;99.90;;;;;;8440329;28;20381;-70
2023/12/20 07:54:39;;;;;;;;;;;7.80;99.90;;;;;;8476543;27;19981;-70
2023/12/20 07:58:41;;;;;;;;;;;7.80;99.90;;;;;;8423790;28;20519;-70
2023/12/20 08:02:51;;;;;;;;;;;7.80;99.90;;;;;;8425618;28;19938;-70
2023/12/20 08:06:52;;;;;;;;;;;7.80;99.90;;;;;;8427424;28;19998;-70
2023/12/20 08:10:54;;;;;;;;;;;7.90;99.90;;;;;;8432696;28;19924;-70
2023/12/20 08:14:56;;;;;;;;;;;7.90;99.90;;;;;;8438178;28;19930;-70
2023/12/20 08:18:58;;;;;;;;;;;7.90;99.90;;;;;;8437354;28;19984;-70
2023/12/20 08:23:00;;;;;;;;;;;7.90;99.90;;;;;;8418873;28;19977;-70
2023/12/20 08:27:02;;;;;;;;;;;7.90;99.90;;;;;;8439806;28;19939;-70
2023/12/20 08:31:04;;;;;;;;;;;7.90;99.90;;;;;;8413891;28;19924;-70
2023/12/20 08:35:06;;;;;;;;;;;8.00;99.90;;;;;;8433152;28;19924;-70
2023/12/20 08:39:08;;;;;;;;;;;8.00;99.90;;;;;;8430210;28;19939;-70
2023/12/20 08:43:09;;;;;;;;;;;8.00;99.90;;;;;;8428922;28;19924;-70
2023/12/20 08:47:13;;;;;;;;;;;8.00;99.90;;;;;;8443868;28;19963;-70
2023/12/20 08:51:15;;;;;;;;;;;8.00;99.90;;;;;;8416145;28;19932;-70
2023/12/20 08:55:18;;;;;;;;;;;8.00;99.90;;;;;;8421181;28;19924;-70
2023/12/20 08:59:20;;;;;;;;;;;8.00;99.90;;;;;;8417856;28;19939;-70
2023/12/20 09:03:21;;;;;;;;;;;8.10;99.90;;;;;;8412295;28;19928;-70
2023/12/20 09:07:24;;;;;;;;;;;8.10;99.90;;;;;;8425054;28;19939;-70
2023/12/20 09:11:25;;;;;;;;;;;8.10;99.90;;;;;;8434897;28;20014;-70
2023/12/20 09:15:27;;;;;;;;;;;8.10;99.90;;;;;;8421593;28;19931;-70
2023/12/20 09:19:29;;;;;;;;;;;8.10;99.90;;;;;;8426096;28;19943;-70
2023/12/20 09:23:31;;;;;;;;;;;8.10;99.90;;;;;;8423331;28;20374;-70
2023/12/20 09:27:33;;;;;;;;;;;8.10;99.90;;;;;;8431369;28;20364;-70
2023/12/20 09:31:36;;;;;;;;;;;8.20;99.90;;;;;;8428598;28;19954;-70
2023/12/20 09:35:38;;;;;;;;;;;8.20;99.90;;;;;;8430178;28;19928;-70
2023/12/20 09:39:40;;;;;;;;;;;8.30;99.90;;;;;;8430368;28;19929;-70
2023/12/20 09:43:42;;;;;;;;;;;8.30;99.90;;;;;;8432972;28;20280;-70
2023/12/20 09:47:44;;;;;;;;;;;8.40;99.90;;;;;;8423859;28;19924;-70
2023/12/20 09:51:46;;;;;;;;;;;8.40;99.90;;;;;;8438758;28;19930;-70
2023/12/20 09:55:49;;;;;;;;;;;8.50;99.90;;;;;;8425174;28;19953;-70
2023/12/20 09:59:50;;;;;;;;;;;8.50;99.90;;;;;;8440610;28;19943;-70
2023/12/20 10:03:54;;;;;;;;;;;8.60;99.90;;;;;;8435942;28;19924;-70
2023/12/20 10:07:56;;;;;;;;;;;8.60;99.90;;;;;;8439072;28;19954;-69
2023/12/20 10:11:57;;;;;;;;;;;8.70;99.90;;;;;;8432123;28;19936;-69
2023/12/20 10:16:00;;;;;;;;;;;8.70;99.90;;;;;;8419665;28;20374;-70
2023/12/20 10:20:02;;;;;;;;;;;8.70;99.90;;;;;;8433703;28;19923;-70
2023/12/20 10:24:04;;;;;;;;;;;8.80;99.90;;;;;;8429712;28;19950;-70
2023/12/20 10:28:13;;;;;;;;;;;8.80;99.90;;;;;;8430753;28;20406;-70
2023/12/20 10:32:25;;;;;;;;;;;8.80;99.90;;;;;;8428033;28;19924;-70
2023/12/20 10:36:31;;;;;;;;;;;8.90;99.90;;;;;;8433351;28;19981;-70
2023/12/20 10:40:34;;;;;;;;;;;8.90;99.90;;;;;;8435217;28;19924;-70
2023/12/20 10:44:36;;;;;;;;;;;9.00;99.90;;;;;;8417956;28;19925;-70
2023/12/20 10:48:39;;;;;;;;;;;9.00;99.90;;;;;;8420532;28;19928;-70
2023/12/20 10:52:41;;;;;;;;;;;9.00;99.90;;;;;;8452632;27;20040;-70
2023/12/20 10:56:42;;;;;;;;;;;9.10;99.90;;;;;;8462783;27;19928;-70
2023/12/20 11:00:45;;;;;;;;;;;9.10;99.90;;;;;;8431215;28;19924;-70
2023/12/20 11:04:51;;;;;;;;;;;9.10;99.90;;;;;;8426663;28;20553;-70
2023/12/20 11:09:10;;;;;;;;;;;9.20;99.90;;;;;;8424577;28;19928;-70
2023/12/20 11:13:16;;;;;;;;;;;9.20;99.90;;;;;;8418122;28;20379;-70
2023/12/20 11:17:18;;;;;;;;;;;9.30;99.90;;;;;;8412570;28;19936;-70
2023/12/20 11:21:20;;;;;;;;;;;9.30;99.90;;;;;;8414556;28;19924;-70
2023/12/20 11:25:22;;;;;;;;;;;9.50;99.90;;;;;;8416151;28;19923;-70
2023/12/20 11:29:36;;;;;;;;;;;9.60;99.90;;;;;;8418122;28;19954;-70
2023/12/20 11:33:39;;;;;;;;;;;9.60;99.90;;;;;;8429828;28;19932;-70
2023/12/20 11:37:44;;;;;;;;;;;9.50;99.90;;;;;;8423208;28;19947;-70
2023/12/20 11:41:46;;;;;;;;;;;9.50;99.90;;;;;;8424218;28;19929;-70
2023/12/20 11:45:51;;;;;;;;;;;9.50;99.90;;;;;;8416713;28;19929;-70
2023/12/20 11:49:53;;;;;;;;;;;9.50;99.90;;;;;;8423220;28;20347;-70
2023/12/20 11:53:54;;;;;;;;;;;9.50;99.90;;;;;;8434709;28;19967;-70
2023/12/20 11:57:56;;;;;;;;;;;9.50;99.90;;;;;;8447586;28;19923;-70
2023/12/20 12:02:00;;;;;;;;;;;9.60;99.90;;;;;;8426045;28;20408;-70
2023/12/20 12:06:04;;;;;;;;;;;9.60;99.90;;;;;;8424074;28;20140;-70
2023/12/20 12:10:07;;;;;;;;;;;9.60;99.90;;;;;;8425646;28;20319;-70
2023/12/20 12:14:09;;;;;;;;;;;9.70;99.90;;;;;;8422313;28;19924;-70
2023/12/20 12:18:15;;;;;;;;;;;9.60;99.90;;;;;;8457867;27;19955;-70
2023/12/20 12:22:19;;;;;;;;;;;9.60;99.90;;;;;;8434988;28;19930;-70
2023/12/20 12:26:24;;;;;;;;;;;9.50;99.90;;;;;;8427378;28;19962;-70
2023/12/20 12:30:26;;;;;;;;;;;9.50;99.90;;;;;;8433517;28;19943;-70
2023/12/20 12:34:36;;;;;;;;;;;9.50;99.90;;;;;;8427825;28;19974;-70
2023/12/20 12:38:38;;;;;;;;;;;9.60;99.90;;;;;;8435574;28;20371;-70
2023/12/20 12:42:41;;;;;;;;;;;9.60;99.90;;;;;;8439254;28;19974;-70
2023/12/20 12:46:42;;;;;;;;;;;9.70;99.90;;;;;;8435317;28;20040;-70
2023/12/20 12:50:45;;;;;;;;;;;9.70;99.90;;;;;;8434097;28;19924;-70
2023/12/20 12:54:47;;;;;;;;;;;9.70;99.90;;;;;;8433942;28;19951;-70
2023/12/20 12:58:48;;;;;;;;;;;9.70;99.90;;;;;;8442821;28;20287;-70
2023/12/20 13:02:51;;;;;;;;;;;9.70;99.90;;;;;;8445453;28;19928;-70
2023/12/20 13:06:53;;;;;;;;;;;9.70;99.90;;;;;;8441447;28;20449;-70
2023/12/20 13:10:55;;;;;;;;;;;9.70;99.90;;;;;;8442737;28;20339;-70
2023/12/20 13:14:57;;;;;;;;;;;9.70;99.90;;;;;;8440826;28;20349;-70
2023/12/20 13:18:59;;;;;;;;;;;9.70;99.90;;;;;;8434127;28;20371;-70
2023/12/20 13:23:01;;;;;;;;;;;9.70;99.90;;;;;;8436774;28;19988;-70
2023/12/20 13:27:03;;;;;;;;;;;9.80;99.90;;;;;;8439034;28;19939;-70
2023/12/20 13:31:05;;;;;;;;;;;9.80;99.90;;;;;;8438982;28;19924;-70
2023/12/20 13:35:07;;;;;;;;;;;9.80;99.90;;;;;;8431154;28;19923;-70
2023/12/20 13:39:08;;;;;;;;;;;9.80;99.90;;;;;;8441435;28;19976;-70
2023/12/20 13:43:12;;;;;;;;;;;9.80;99.90;;;;;;8446250;28;19924;-70
2023/12/20 13:47:14;;;;;;;;;;;9.80;99.90;;;;;;8428250;28;19985;-70
2023/12/20 13:51:16;;;;;;;;;;;9.80;99.90;;;;;;8432910;28;20370;-70
2023/12/20 13:55:17;;;;;;;;;;;9.80;99.90;;;;;;8435170;28;19924;-70
2023/12/20 13:59:19;;;;;;;;;;;9.80;99.90;;;;;;8429856;28;19935;-70
2023/12/20 14:03:21;;;;;;;;;;;9.80;99.90;;;;;;8425311;28;19932;-70
2023/12/20 14:07:22;;;;;;;;;;;9.80;99.90;;;;;;8437859;28;19923;-70
2023/12/20 14:11:24;;;;;;;;;;;9.80;99.90;;;;;;8428070;28;19932;-70
2023/12/20 14:15:26;;;;;;;;;;;9.90;99.90;;;;;;8430381;28;19928;-71
2023/12/20 14:19:28;;;;;;;;;;;9.90;99.90;;;;;;8431495;28;20368;-70
2023/12/20 14:23:30;;;;;;;;;;;9.80;99.90;;;;;;8438131;28;19934;-70
2023/12/20 14:27:31;;;;;;;;;;;9.80;99.90;;;;;;8436078;28;19967;-70
2023/12/20 14:31:33;;;;;;;;;;;9.80;99.90;;;;;;8439527;28;20256;-70
2023/12/20 14:35:35;;;;;;;;;;;9.80;99.90;;;;;;8467914;27;20388;-70
2023/12/20 14:39:41;;;;;;;;;;;9.70;99.90;;;;;;8427935;28;19924;-70
2023/12/20 14:43:43;;;;;;;;;;;9.70;99.90;;;;;;8429080;28;19939;-70
2023/12/20 14:47:44;;;;;;;;;;;9.70;99.90;;;;;;8425033;28;19924;-70
2023/12/20 14:51:47;;;;;;;;;;;9.60;99.90;;;;;;8433209;28;19931;-70
2023/12/20 14:55:50;;;;;;;;;;;9.60;99.90;;;;;;8434558;28;19968;-70
2023/12/20 14:59:52;;;;;;;;;;;9.50;99.90;;;;;;8423526;28;20326;-70
2023/12/20 15:03:55;;;;;;;;;;;9.50;99.90;;;;;;8421844;28;19951;-70
2023/12/20 15:07:58;;;;;;;;;;;9.50;99.90;;;;;;8437516;28;20422;-70
2023/12/20 15:11:59;;;;;;;;;;;9.40;99.90;;;;;;8435484;28;20291;-70
2023/12/20 15:16:01;;;;;;;;;;;9.40;99.90;;;;;;8438386;28;19932;-70
2023/12/20 15:20:04;;;;;;;;;;;9.30;99.90;;;;;;8442586;28;19924;-70
2023/12/20 15:24:13;;;;;;;;;;;9.40;99.90;;;;;;8440528;28;19975;-70
2023/12/20 15:28:14;;;;;;;;;;;9.40;99.90;;;;;;8428271;28;20371;-70
2023/12/20 15:32:18;;;;;;;;;;;9.30;99.90;;;;;;8430577;28;20279;-70
2023/12/20 15:36:20;;;;;;;;;;;9.30;99.90;;;;;;8425075;28;19982;-70
2023/12/20 15:40:22;;;;;;;;;;;9.20;99.90;;;;;;8412714;28;19944;-70
2023/12/20 15:44:23;;;;;;;;;;;9.10;99.90;;;;;;8422236;28;19936;-70
2023/12/20 15:48:28;;;;;;;;;;;8.90;99.90;;;;;;8423634;28;19972;-70
2023/12/20 15:52:30;;;;;;;;;;;8.90;99.90;;;;;;8434885;28;19931;-70
2023/12/20 15:56:32;;;;;;;;;;;8.80;99.90;;;;;;8447586;28;19923;-70
2023/12/20 16:00:34;;;;;;;;;;;8.80;99.90;;;;;;8435895;28;20327;-70
2023/12/20 16:04:36;;;;;;;;;;;8.80;99.90;;;;;;8434532;28;19923;-70
2023/12/20 16:08:38;;;;;;;;;;;8.80;99.90;;;;;;8438043;28;19960;-70
2023/12/20 16:12:40;;;;;;;;;;;8.80;99.90;;;;;;8432438;28;19932;-70
2023/12/20 16:16:41;;;;;;;;;;;8.70;99.90;;;;;;8441866;28;20298;-70
2023/12/20 16:20:43;;;;;;;;;;;8.70;99.90;;;;;;8447542;28;19931;-70
2023/12/20 16:24:45;;;;;;;;;;;8.70;99.90;;;;;;8437588;28;19931;-70
2023/12/20 16:28:47;;;;;;;;;;;8.70;99.90;;;;;;8444763;28;19928;-70
2023/12/20 16:32:50;;;;;;;;;;;8.70;99.90;;;;;;8431751;28;20395;-70
2023/12/20 16:36:54;;;;;;;;;;;8.70;99.90;;;;;;8436828;28;19924;-70
2023/12/20 16:40:55;;;;;;;;;;;8.80;99.90;;;;;;8438037;28;19935;-70
2023/12/20 16:44:57;;;;;;;;;;;8.80;99.90;;;;;;8433838;28;19924;-70
2023/12/20 16:48:59;;;;;;;;;;;8.80;99.90;;;;;;8438838;28;19924;-70
2023/12/20 16:53:00;;;;;;;;;;;8.80;99.90;;;;;;8445578;28;19928;-70
2023/12/20 16:57:02;;;;;;;;;;;8.80;99.90;;;;;;8434140;28;19924;-70
2023/12/20 17:01:05;;;;;;;;;;;8.80;99.90;;;;;;8436579;28;20390;-70
2023/12/20 17:05:07;;;;;;;;;;;8.70;99.90;;;;;;8436314;28;19924;-70
2023/12/20 17:09:09;;;;;;;;;;;8.70;99.90;;;;;;8431214;28;19924;-70
2023/12/20 17:13:10;;;;;;;;;;;8.70;99.90;;;;;;8445071;28;19935;-70
2023/12/20 17:17:12;;;;;;;;;;;8.60;99.90;;;;;;8436690;28;20326;-70
2023/12/20 17:21:17;;;;;;;;;;;8.60;99.90;;;;;;8442230;28;19945;-70
2023/12/20 17:25:19;;;;;;;;;;;8.60;99.90;;;;;;8435105;28;19928;-70
2023/12/20 17:29:21;;;;;;;;;;;8.60;99.90;;;;;;8439026;28;19953;-70
2023/12/20 17:33:23;;;;;;;;;;;8.60;99.90;;;;;;8435558;28;19928;-70
2023/12/20 17:37:24;;;;;;;;;;;8.60;99.90;;;;;;8421464;28;20337;-70
2023/12/20 17:41:26;;;;;;;;;;;8.60;99.90;;;;;;8419140;28;19959;-70
2023/12/20 17:45:28;;;;;;;;;;;8.60;99.90;;;;;;8428878;28;20299;-70
2023/12/20 17:49:31;;;;;;;;;;;8.60;99.90;;;;;;8438081;28;19924;-70
2023/12/20 17:53:33;;;;;;;;;;;8.60;99.90;;;;;;8436777;28;19928;-70
2023/12/20 17:57:34;;;;;;;;;;;8.60;99.90;;;;;;8433921;28;19932;-70
2023/12/20 18:01:36;;;;;;;;;;;8.60;99.90;;;;;;8435530;28;20311;-70
2023/12/20 18:05:38;;;;;;;;;;;8.60;99.90;;;;;;8435068;28;19924;-70
2023/12/20 18:09:40;;;;;;;;;;;8.60;99.90;;;;;;8429041;28;20307;-70
2023/12/20 18:13:42;;;;;;;;;;;8.60;99.90;;;;;;8438885;28;19924;-70
2023/12/20 18:17:43;;;;;;;;;;;8.60;99.90;;;;;;8433788;28;19938;-69
2023/12/20 18:21:46;;;;;;;;;;;8.60;99.90;;;;;;8432189;28;20294;-70
2023/12/20 18:25:48;;;;;;;;;;;8.60;99.90;;;;;;8435655;28;20012;-70
2023/12/20 18:29:50;;;;;;;;;;;8.60;99.90;;;;;;8426913;28;19931;-70
2023/12/20 18:33:53;;;;;;;;;;;8.60;99.90;;;;;;8436687;28;20395;-70
2023/12/20 18:37:55;;;;;;;;;;;8.60;99.90;;;;;;8411953;28;20019;-70
2023/12/20 18:41:56;;;;;;;;;;;8.60;99.90;;;;;;8410835;28;19928;-70
2023/12/20 18:45:59;;;;;;;;;;;8.60;99.90;;;;;;8415457;28;19931;-70
2023/12/20 18:50:02;;;;;;;;;;;8.60;99.90;;;;;;8424341;28;19979;-70
2023/12/20 18:54:04;;;;;;;;;;;8.60;99.90;;;;;;8424501;28;20410;-70
2023/12/20 18:58:06;;;;;;;;;;;8.60;99.90;;;;;;8432821;28;19939;-70
2023/12/20 19:02:08;;;;;;;;;;;8.60;99.90;;;;;;8437805;28;19968;-70
2023/12/20 19:06:10;;;;;;;;;;;8.60;99.90;;;;;;8449274;28;19932;-70
2023/12/20 19:10:12;;;;;;;;;;;8.60;99.90;;;;;;8444237;28;19928;-71
2023/12/20 19:14:14;;;;;;;;;;;8.60;99.90;;;;;;8448784;28;19928;-70
2023/12/20 19:18:16;;;;;;;;;;;8.60;99.90;;;;;;8436135;28;19929;-70
2023/12/20 19:22:17;;;;;;;;;;;8.60;99.90;;;;;;8439401;28;20478;-71
2023/12/20 19:26:19;;;;;;;;;;;8.60;99.90;;;;;;8436506;28;20306;-71
2023/12/20 19:30:21;;;;;;;;;;;8.60;99.90;;;;;;8420762;28;20387;-70
2023/12/20 19:34:23;;;;;;;;;;;8.60;99.90;;;;;;8420663;28;20478;-70
2023/12/20 19:38:24;;;;;;;;;;;8.60;99.90;;;;;;8422996;28;19931;-70
2023/12/20 19:42:26;;;;;;;;;;;8.60;99.90;;;;;;8424891;28;19928;-71
2023/12/20 19:46:28;;;;;;;;;;;8.60;99.90;;;;;;8431912;28;19940;-71
2023/12/20 19:50:30;;;;;;;;;;;8.70;99.90;;;;;;8415323;28;19935;-70
2023/12/20 19:54:32;;;;;;;;;;;8.70;99.90;;;;;;8406838;28;20043;-71
2023/12/20 19:58:34;;;;;;;;;;;8.70;99.90;;;;;;8416124;28;19928;-71
2023/12/20 20:02:37;;;;;;;;;;;8.70;99.90;;;;;;8413042;28;19936;-70
2023/12/20 20:06:39;;;;;;;;;;;8.70;99.90;;;;;;8418013;28;19934;-70
2023/12/20 20:10:42;;;;;;;;;;;8.70;99.90;;;;;;8421511;28;19971;-70
2023/12/20 20:14:44;;;;;;;;;;;8.70;99.90;;;;;;8420367;28;19967;-70
2023/12/20 20:18:45;;;;;;;;;;;8.70;99.90;;;;;;8419337;28;19932;-70
2023/12/20 20:22:47;;;;;;;;;;;8.80;99.90;;;;;;8419206;28;19924;-70
2023/12/20 20:26:49;;;;;;;;;;;8.80;99.90;;;;;;8430671;28;19967;-70
2023/12/20 20:30:50;;;;;;;;;;;8.80;99.90;;;;;;8425102;28;20496;-71
2023/12/20 20:34:53;;;;;;;;;;;8.80;99.90;;;;;;8433340;28;19935;-70
2023/12/20 20:38:55;;;;;;;;;;;8.80;99.90;;;;;;8434831;28;19939;-71
2023/12/20 20:42:56;;;;;;;;;;;8.80;99.90;;;;;;8430270;28;19924;-71
2023/12/20 20:46:58;;;;;;;;;;;8.80;99.90;;;;;;8436017;28;19931;-71
2023/12/20 20:51:01;;;;;;;;;;;8.90;99.90;;;;;;8437506;28;19978;-71
2023/12/20 20:55:03;;;;;;;;;;;8.80;99.90;;;;;;8427833;28;19928;-71
2023/12/20 20:59:05;;;;;;;;;;;8.90;99.90;;;;;;8427524;28;19932;-71
2023/12/20 21:03:08;;;;;;;;;;;8.90;99.90;;;;;;8430618;28;19924;-71
2023/12/20 21:07:10;;;;;;;;;;;8.90;99.90;;;;;;8429996;28;19959;-71
2023/12/20 21:11:14;;;;;;;;;;;8.90;99.90;;;;;;8416944;28;20002;-71
2023/12/20 21:15:15;;;;;;;;;;;8.90;99.90;;;;;;8427362;28;19924;-71
2023/12/20 21:19:17;;;;;;;;;;;8.90;99.90;;;;;;8420093;28;19928;-71
2023/12/20 21:23:21;;;;;;;;;;;8.90;99.90;;;;;;8415711;28;19924;-71
2023/12/20 21:27:23;;;;;;;;;;;9.00;99.90;;;;;;8426486;28;20333;-71
2023/12/20 21:31:24;;;;;;;;;;;9.00;99.90;;;;;;8424547;28;20395;-71
2023/12/20 21:35:26;;;;;;;;;;;9.00;99.90;;;;;;8426877;28;19933;-71
2023/12/20 21:39:29;;;;;;;;;;;9.00;99.90;;;;;;8422449;28;19928;-72
2023/12/20 21:43:31;;;;;;;;;;;9.00;99.90;;;;;;8427069;28;20347;-71
2023/12/20 21:47:33;;;;;;;;;;;9.10;99.90;;;;;;8425500;28;20276;-71
2023/12/20 21:51:34;;;;;;;;;;;9.10;99.90;;;;;;8428064;28;20394;-71
2023/12/20 21:55:37;;;;;;;;;;;9.10;99.90;;;;;;8467929;27;19939;-72
2023/12/20 21:59:39;;;;;;;;;;;9.10;99.90;;;;;;8416893;28;20015;-72
2023/12/20 22:03:40;;;;;;;;;;;9.10;99.90;;;;;;8428358;28;19925;-72
2023/12/20 22:07:42;;;;;;;;;;;9.10;99.90;;;;;;8424348;28;19939;-72
2023/12/20 22:11:44;;;;;;;;;;;9.20;99.90;;;;;;8425344;28;19975;-72
2023/12/20 22:15:46;;;;;;;;;;;9.20;99.90;;;;;;8431600;28;19923;-71
2023/12/20 22:19:47;;;;;;;;;;;9.20;99.90;;;;;;8425183;28;19924;-71
2023/12/20 22:23:49;;;;;;;;;;;9.20;99.90;;;;;;8425884;28;20089;-72
2023/12/20 22:27:51;;;;;;;;;;;9.30;99.90;;;;;;8439163;28;19933;-72
2023/12/20 22:31:53;;;;;;;;;;;9.30;99.90;;;;;;8423338;28;19972;-71
2023/12/20 22:35:55;;;;;;;;;;;9.30;99.90;;;;;;8425458;28;19924;-72
2023/12/20 22:39:56;;;;;;;;;;;9.30;99.90;;;;;;8429106;28;19931;-71
2023/12/20 22:43:58;;;;;;;;;;;9.30;99.90;;;;;;8409104;28;19931;-72
2023/12/20 22:48:01;;;;;;;;;;;9.30;99.90;;;;;;8421224;28;19962;-72
2023/12/20 22:52:02;;;;;;;;;;;9.30;99.90;;;;;;8426357;28;19924;-72
2023/12/20 22:56:04;;;;;;;;;;;9.40;99.90;;;;;;8424498;28;19969;-71
2023/12/20 23:00:09;;;;;;;;;;;9.40;99.90;;;;;;8439429;28;19928;-72
2023/12/20 23:04:10;;;;;;;;;;;9.40;99.90;;;;;;8430516;28;20282;-72
2023/12/20 23:08:12;;;;;;;;;;;9.40;99.90;;;;;;8425393;28;19931;-72
2023/12/20 23:12:14;;;;;;;;;;;9.40;99.90;;;;;;8427803;28;19987;-72
2023/12/20 23:16:16;;;;;;;;;;;9.40;99.90;;;;;;8421628;28;19925;-72
2023/12/20 23:20:18;;;;;;;;;;;9.40;99.90;;;;;;8422248;28;19924;-71
2023/12/20 23:24:19;;;;;;;;;;;9.50;99.90;;;;;;8416078;28;20291;-71
2023/12/20 23:28:21;;;;;;;;;;;9.40;99.90;;;;;;8418039;28;20283;-71
2023/12/20 23:32:23;;;;;;;;;;;9.50;99.90;;;;;;8427773;28;19972;-71
2023/12/20 23:36:24;;;;;;;;;;;9.50;99.90;;;;;;8420822;28;19939;-71
2023/12/20 23:40:26;;;;;;;;;;;9.50;99.90;;;;;;8430677;28;19932;-71
2023/12/20 23:44:30;;;;;;;;;;;9.50;99.90;;;;;;8429737;28;19954;-71
2023/12/20 23:48:33;;;;;;;;;;;9.50;99.90;;;;;;8444846;28;19932;-71
2023/12/20 23:52:35;;;;;;;;;;;9.50;99.90;;;;;;8431396;28;20316;-71
2023/12/20 23:56:37;;;;;;;;;;;9.50;99.90;;;;;;8424846;28;19954;-71
